sensor_id;sensor_type;location;lat;lon;timestamp;P1;durP1;ratioP1;P2;durP2;ratioP2
18048;SDS011;9149;47.002;8.604;2024-02-28T00:00:33;25.30;;;12.60;;
18048;SDS011;9149;47.002;8.604;2024-02-28T00:03:01;31.40;;;13.97;;
18048;SDS011;9149;47.002;8.604;2024-02-28T00:05:29;24.23;;;12.07;;
18048;SDS011;9149;47.002;8.604;2024-02-28T00:07:58;25.80;;;11.93;;
18048;SDS011;9149;47.002;8.604;2024-02-28T00:10:26;27.10;;;12.80;;
18048;SDS011;9149;47.002;8.604;2024-02-28T00:12:53;27.07;;;13.00;;
18048;SDS011;9149;47.002;8.604;2024-02-28T00:15:21;27.83;;;12.63;;
18048;SDS011;9149;47.002;8.604;2024-02-28T00:17:51;28.77;;;13.00;;
18048;SDS011;9149;47.002;8.604;2024-02-28T00:20:18;28.97;;;12.70;;
18048;SDS011;9149;47.002;8.604;2024-02-28T00:22:46;24.83;;;12.40;;
18048;SDS011;9149;47.002;8.604;2024-02-28T00:25:15;28.13;;;13.10;;
18048;SDS011;9149;47.002;8.604;2024-02-28T00:27:43;26.03;;;12.23;;
18048;SDS011;9149;47.002;8.604;2024-02-28T00:30:11;25.27;;;12.50;;
18048;SDS011;9149;47.002;8.604;2024-02-28T00:32:39;26.17;;;11.67;;
18048;SDS011;9149;47.002;8.604;2024-02-28T00:35:06;23.03;;;11.37;;
18048;SDS011;9149;47.002;8.604;2024-02-28T00:37:34;28.43;;;12.40;;
18048;SDS011;9149;47.002;8.604;2024-02-28T00:40:02;26.47;;;11.97;;
18048;SDS011;9149;47.002;8.604;2024-02-28T00:42:31;26.87;;;13.07;;
18048;SDS011;9149;47.002;8.604;2024-02-28T00:44:59;29.43;;;12.70;;
18048;SDS011;9149;47.002;8.604;2024-02-28T00:47:27;29.10;;;13.50;;
18048;SDS011;9149;47.002;8.604;2024-02-28T00:49:55;23.87;;;11.80;;
18048;SDS011;9149;47.002;8.604;2024-02-28T00:52:22;24.13;;;11.50;;
18048;SDS011;9149;47.002;8.604;2024-02-28T00:54:51;28.20;;;12.27;;
18048;SDS011;9149;47.002;8.604;2024-02-28T00:57:19;28.30;;;12.87;;
18048;SDS011;9149;47.002;8.604;2024-02-28T00:59:48;23.13;;;11.80;;
18048;SDS011;9149;47.002;8.604;2024-02-28T01:02:15;27.80;;;13.07;;
18048;SDS011;9149;47.002;8.604;2024-02-28T01:04:43;27.97;;;12.33;;
18048;SDS011;9149;47.002;8.604;2024-02-28T01:07:11;29.30;;;12.67;;
18048;SDS011;9149;47.002;8.604;2024-02-28T01:09:38;24.93;;;12.57;;
18048;SDS011;9149;47.002;8.604;2024-02-28T01:12:06;30.27;;;12.93;;
18048;SDS011;9149;47.002;8.604;2024-02-28T01:14:34;24.27;;;12.33;;
18048;SDS011;9149;47.002;8.604;2024-02-28T01:17:03;22.70;;;11.23;;
18048;SDS011;9149;47.002;8.604;2024-02-28T01:19:30;25.60;;;11.77;;
18048;SDS011;9149;47.002;8.604;2024-02-28T01:21:59;25.83;;;11.80;;
18048;SDS011;9149;47.002;8.604;2024-02-28T01:24:27;30.33;;;12.23;;
18048;SDS011;9149;47.002;8.604;2024-02-28T01:26:54;26.50;;;12.73;;
18048;SDS011;9149;47.002;8.604;2024-02-28T01:29:22;30.53;;;12.33;;
18048;SDS011;9149;47.002;8.604;2024-02-28T01:31:50;27.80;;;12.27;;
18048;SDS011;9149;47.002;8.604;2024-02-28T01:34:19;28.77;;;13.50;;
18048;SDS011;9149;47.002;8.604;2024-02-28T01:36:47;27.80;;;12.87;;
18048;SDS011;9149;47.002;8.604;2024-02-28T01:39:15;31.70;;;12.53;;
18048;SDS011;9149;47.002;8.604;2024-02-28T01:41:49;26.87;;;12.97;;
18048;SDS011;9149;47.002;8.604;2024-02-28T01:44:17;27.37;;;12.77;;
18048;SDS011;9149;47.002;8.604;2024-02-28T01:46:45;24.60;;;12.47;;
18048;SDS011;9149;47.002;8.604;2024-02-28T01:49:13;27.37;;;12.93;;
18048;SDS011;9149;47.002;8.604;2024-02-28T01:51:43;28.77;;;13.30;;
18048;SDS011;9149;47.002;8.604;2024-02-28T01:54:14;30.33;;;12.77;;
18048;SDS011;9149;47.002;8.604;2024-02-28T01:56:43;27.40;;;13.17;;
18048;SDS011;9149;47.002;8.604;2024-02-28T01:59:10;28.13;;;13.17;;
18048;SDS011;9149;47.002;8.604;2024-02-28T02:01:38;28.23;;;12.20;;
18048;SDS011;9149;47.002;8.604;2024-02-28T02:04:06;24.97;;;12.20;;
18048;SDS011;9149;47.002;8.604;2024-02-28T02:06:33;31.27;;;13.43;;
18048;SDS011;9149;47.002;8.604;2024-02-28T02:09:06;29.23;;;12.60;;
18048;SDS011;9149;47.002;8.604;2024-02-28T02:11:33;26.17;;;12.80;;
18048;SDS011;9149;47.002;8.604;2024-02-28T02:14:01;28.90;;;13.00;;
18048;SDS011;9149;47.002;8.604;2024-02-28T02:16:29;30.23;;;13.47;;
18048;SDS011;9149;47.002;8.604;2024-02-28T02:18:57;27.10;;;13.23;;
18048;SDS011;9149;47.002;8.604;2024-02-28T02:21:26;30.57;;;13.20;;
18048;SDS011;9149;47.002;8.604;2024-02-28T02:23:58;26.70;;;12.53;;
18048;SDS011;9149;47.002;8.604;2024-02-28T02:26:26;27.03;;;12.63;;
18048;SDS011;9149;47.002;8.604;2024-02-28T02:28:53;28.63;;;12.00;;
18048;SDS011;9149;47.002;8.604;2024-02-28T02:31:21;26.27;;;12.33;;
18048;SDS011;9149;47.002;8.604;2024-02-28T02:33:49;30.00;;;13.43;;
18048;SDS011;9149;47.002;8.604;2024-02-28T02:36:16;29.83;;;13.50;;
18048;SDS011;9149;47.002;8.604;2024-02-28T02:38:44;30.40;;;13.40;;
18048;SDS011;9149;47.002;8.604;2024-02-28T02:41:13;29.63;;;13.40;;
18048;SDS011;9149;47.002;8.604;2024-02-28T02:43:41;28.50;;;13.80;;
18048;SDS011;9149;47.002;8.604;2024-02-28T02:46:08;26.80;;;12.50;;
18048;SDS011;9149;47.002;8.604;2024-02-28T02:48:36;30.30;;;13.00;;
18048;SDS011;9149;47.002;8.604;2024-02-28T02:51:04;28.00;;;13.27;;
18048;SDS011;9149;47.002;8.604;2024-02-28T02:53:31;29.77;;;13.53;;
18048;SDS011;9149;47.002;8.604;2024-02-28T02:55:59;25.63;;;11.97;;
18048;SDS011;9149;47.002;8.604;2024-02-28T02:58:28;28.07;;;12.83;;
18048;SDS011;9149;47.002;8.604;2024-02-28T03:00:56;31.07;;;13.27;;
18048;SDS011;9149;47.002;8.604;2024-02-28T03:03:24;28.07;;;13.33;;
18048;SDS011;9149;47.002;8.604;2024-02-28T03:05:51;30.63;;;12.97;;
18048;SDS011;9149;47.002;8.604;2024-02-28T03:08:19;27.40;;;12.83;;
18048;SDS011;9149;47.002;8.604;2024-02-28T03:10:47;29.10;;;13.13;;
18048;SDS011;9149;47.002;8.604;2024-02-28T03:13:14;28.80;;;13.37;;
18048;SDS011;9149;47.002;8.604;2024-02-28T03:15:43;29.80;;;14.70;;
18048;SDS011;9149;47.002;8.604;2024-02-28T03:18:11;27.30;;;12.77;;
18048;SDS011;9149;47.002;8.604;2024-02-28T03:20:39;28.23;;;14.03;;
18048;SDS011;9149;47.002;8.604;2024-02-28T03:23:06;30.63;;;13.10;;
18048;SDS011;9149;47.002;8.604;2024-02-28T03:25:34;29.40;;;13.93;;
18048;SDS011;9149;47.002;8.604;2024-02-28T03:28:02;27.10;;;13.40;;
18048;SDS011;9149;47.002;8.604;2024-02-28T03:30:30;29.57;;;13.57;;
18048;SDS011;9149;47.002;8.604;2024-02-28T03:32:59;27.27;;;13.27;;
18048;SDS011;9149;47.002;8.604;2024-02-28T03:35:27;30.57;;;12.73;;
18048;SDS011;9149;47.002;8.604;2024-02-28T03:37:54;29.67;;;13.30;;
18048;SDS011;9149;47.002;8.604;2024-02-28T03:40:22;30.13;;;13.63;;
18048;SDS011;9149;47.002;8.604;2024-02-28T03:42:50;30.20;;;13.67;;
18048;SDS011;9149;47.002;8.604;2024-02-28T03:45:17;31.37;;;13.77;;
18048;SDS011;9149;47.002;8.604;2024-02-28T03:47:46;29.10;;;13.13;;
18048;SDS011;9149;47.002;8.604;2024-02-28T03:50:15;27.70;;;12.77;;
18048;SDS011;9149;47.002;8.604;2024-02-28T03:52:43;27.70;;;13.10;;
18048;SDS011;9149;47.002;8.604;2024-02-28T03:55:10;31.47;;;13.00;;
18048;SDS011;9149;47.002;8.604;2024-02-28T03:57:38;31.23;;;13.83;;
18048;SDS011;9149;47.002;8.604;2024-02-28T04:00:06;26.37;;;12.60;;
18048;SDS011;9149;47.002;8.604;2024-02-28T04:02:38;39.90;;;13.53;;
18048;SDS011;9149;47.002;8.604;2024-02-28T04:05:06;28.10;;;11.83;;
18048;SDS011;9149;47.002;8.604;2024-02-28T04:07:35;27.90;;;12.97;;
18048;SDS011;9149;47.002;8.604;2024-02-28T04:10:03;30.87;;;13.47;;
18048;SDS011;9149;47.002;8.604;2024-02-28T04:12:32;29.43;;;13.10;;
18048;SDS011;9149;47.002;8.604;2024-02-28T04:14:59;32.00;;;13.27;;
18048;SDS011;9149;47.002;8.604;2024-02-28T04:17:27;25.70;;;13.03;;
18048;SDS011;9149;47.002;8.604;2024-02-28T04:19:55;28.33;;;13.30;;
18048;SDS011;9149;47.002;8.604;2024-02-28T04:22:24;32.90;;;13.67;;
18048;SDS011;9149;47.002;8.604;2024-02-28T04:24:53;27.77;;;13.57;;
18048;SDS011;9149;47.002;8.604;2024-02-28T04:27:20;26.90;;;12.53;;
18048;SDS011;9149;47.002;8.604;2024-02-28T04:29:48;26.77;;;12.53;;
18048;SDS011;9149;47.002;8.604;2024-02-28T04:32:16;31.97;;;13.93;;
18048;SDS011;9149;47.002;8.604;2024-02-28T04:34:43;31.13;;;14.10;;
18048;SDS011;9149;47.002;8.604;2024-02-28T04:37:11;26.33;;;12.43;;
18048;SDS011;9149;47.002;8.604;2024-02-28T04:39:39;29.20;;;13.63;;
18048;SDS011;9149;47.002;8.604;2024-02-28T04:42:08;30.40;;;13.23;;
18048;SDS011;9149;47.002;8.604;2024-02-28T04:44:36;29.77;;;13.40;;
18048;SDS011;9149;47.002;8.604;2024-02-28T04:47:04;26.83;;;12.87;;
18048;SDS011;9149;47.002;8.604;2024-02-28T04:49:32;29.40;;;13.10;;
18048;SDS011;9149;47.002;8.604;2024-02-28T04:52:00;28.73;;;13.20;;
18048;SDS011;9149;47.002;8.604;2024-02-28T04:54:28;31.17;;;12.73;;
18048;SDS011;9149;47.002;8.604;2024-02-28T04:56:55;30.77;;;13.40;;
18048;SDS011;9149;47.002;8.604;2024-02-28T04:59:24;31.50;;;12.97;;
18048;SDS011;9149;47.002;8.604;2024-02-28T05:01:52;31.27;;;12.37;;
18048;SDS011;9149;47.002;8.604;2024-02-28T05:04:19;30.27;;;12.47;;
18048;SDS011;9149;47.002;8.604;2024-02-28T05:06:47;29.80;;;13.17;;
18048;SDS011;9149;47.002;8.604;2024-02-28T05:09:15;26.97;;;12.90;;
18048;SDS011;9149;47.002;8.604;2024-02-28T05:11:43;31.37;;;13.43;;
18048;SDS011;9149;47.002;8.604;2024-02-28T05:14:11;36.43;;;12.30;;
18048;SDS011;9149;47.002;8.604;2024-02-28T05:16:40;32.57;;;14.37;;
18048;SDS011;9149;47.002;8.604;2024-02-28T05:19:07;32.00;;;13.93;;
18048;SDS011;9149;47.002;8.604;2024-02-28T05:21:39;28.60;;;13.43;;
18048;SDS011;9149;47.002;8.604;2024-02-28T05:24:07;30.90;;;13.93;;
18048;SDS011;9149;47.002;8.604;2024-02-28T05:26:36;31.90;;;13.43;;
18048;SDS011;9149;47.002;8.604;2024-02-28T05:29:04;31.07;;;14.43;;
18048;SDS011;9149;47.002;8.604;2024-02-28T05:31:32;33.47;;;14.60;;
18048;SDS011;9149;47.002;8.604;2024-02-28T05:34:01;31.20;;;13.87;;
18048;SDS011;9149;47.002;8.604;2024-02-28T05:36:29;33.17;;;13.77;;
18048;SDS011;9149;47.002;8.604;2024-02-28T05:38:58;31.90;;;14.20;;
18048;SDS011;9149;47.002;8.604;2024-02-28T05:41:27;33.23;;;14.77;;
18048;SDS011;9149;47.002;8.604;2024-02-28T05:43:55;34.93;;;15.10;;
18048;SDS011;9149;47.002;8.604;2024-02-28T05:46:22;32.03;;;14.23;;
18048;SDS011;9149;47.002;8.604;2024-02-28T05:48:50;34.60;;;14.90;;
18048;SDS011;9149;47.002;8.604;2024-02-28T05:51:19;31.73;;;13.97;;
18048;SDS011;9149;47.002;8.604;2024-02-28T05:53:49;28.83;;;13.93;;
18048;SDS011;9149;47.002;8.604;2024-02-28T05:56:17;34.97;;;14.23;;
18048;SDS011;9149;47.002;8.604;2024-02-28T05:58:46;32.53;;;14.60;;
18048;SDS011;9149;47.002;8.604;2024-02-28T06:01:15;31.63;;;14.23;;
18048;SDS011;9149;47.002;8.604;2024-02-28T06:03:44;30.97;;;13.73;;
18048;SDS011;9149;47.002;8.604;2024-02-28T06:06:12;29.43;;;13.83;;
18048;SDS011;9149;47.002;8.604;2024-02-28T06:08:42;28.43;;;13.33;;
18048;SDS011;9149;47.002;8.604;2024-02-28T06:11:10;29.10;;;13.67;;
18048;SDS011;9149;47.002;8.604;2024-02-28T06:13:40;31.57;;;13.67;;
18048;SDS011;9149;47.002;8.604;2024-02-28T06:16:13;33.73;;;14.10;;
18048;SDS011;9149;47.002;8.604;2024-02-28T06:18:40;35.60;;;14.77;;
18048;SDS011;9149;47.002;8.604;2024-02-28T06:21:08;33.37;;;15.03;;
18048;SDS011;9149;47.002;8.604;2024-02-28T06:23:36;35.47;;;13.80;;
18048;SDS011;9149;47.002;8.604;2024-02-28T06:26:05;37.00;;;15.20;;
18048;SDS011;9149;47.002;8.604;2024-02-28T06:28:33;33.50;;;15.00;;
18048;SDS011;9149;47.002;8.604;2024-02-28T06:31:00;37.80;;;15.00;;
18048;SDS011;9149;47.002;8.604;2024-02-28T06:33:28;31.53;;;15.40;;
18048;SDS011;9149;47.002;8.604;2024-02-28T06:35:56;40.07;;;16.40;;
18048;SDS011;9149;47.002;8.604;2024-02-28T06:38:23;34.93;;;15.57;;
18048;SDS011;9149;47.002;8.604;2024-02-28T06:40:52;37.50;;;15.30;;
18048;SDS011;9149;47.002;8.604;2024-02-28T06:43:21;35.43;;;15.57;;
18048;SDS011;9149;47.002;8.604;2024-02-28T06:45:48;31.87;;;14.57;;
18048;SDS011;9149;47.002;8.604;2024-02-28T06:48:16;35.67;;;15.63;;
18048;SDS011;9149;47.002;8.604;2024-02-28T06:50:44;33.87;;;14.40;;
18048;SDS011;9149;47.002;8.604;2024-02-28T06:53:11;33.60;;;14.10;;
18048;SDS011;9149;47.002;8.604;2024-02-28T06:55:39;35.90;;;15.00;;
18048;SDS011;9149;47.002;8.604;2024-02-28T06:58:07;35.67;;;13.43;;
18048;SDS011;9149;47.002;8.604;2024-02-28T07:00:36;40.03;;;14.97;;
18048;SDS011;9149;47.002;8.604;2024-02-28T07:03:04;32.67;;;14.27;;
18048;SDS011;9149;47.002;8.604;2024-02-28T07:05:32;32.63;;;13.73;;
18048;SDS011;9149;47.002;8.604;2024-02-28T07:08:00;29.03;;;13.37;;
18048;SDS011;9149;47.002;8.604;2024-02-28T07:10:28;35.37;;;14.60;;
18048;SDS011;9149;47.002;8.604;2024-02-28T07:12:55;33.73;;;14.40;;
18048;SDS011;9149;47.002;8.604;2024-02-28T07:15:24;31.77;;;13.63;;
18048;SDS011;9149;47.002;8.604;2024-02-28T07:17:53;30.63;;;13.47;;
18048;SDS011;9149;47.002;8.604;2024-02-28T07:20:21;31.80;;;14.30;;
18048;SDS011;9149;47.002;8.604;2024-02-28T07:22:48;30.87;;;14.13;;
18048;SDS011;9149;47.002;8.604;2024-02-28T07:25:16;42.57;;;14.70;;
18048;SDS011;9149;47.002;8.604;2024-02-28T07:27:47;37.90;;;15.83;;
18048;SDS011;9149;47.002;8.604;2024-02-28T07:30:15;34.67;;;15.03;;
18048;SDS011;9149;47.002;8.604;2024-02-28T07:32:42;38.53;;;15.90;;
18048;SDS011;9149;47.002;8.604;2024-02-28T07:35:12;37.20;;;14.87;;
18048;SDS011;9149;47.002;8.604;2024-02-28T07:37:40;36.97;;;15.50;;
18048;SDS011;9149;47.002;8.604;2024-02-28T07:40:08;34.03;;;16.73;;
18048;SDS011;9149;47.002;8.604;2024-02-28T07:42:35;37.77;;;16.00;;
18048;SDS011;9149;47.002;8.604;2024-02-28T07:45:03;36.63;;;15.07;;
18048;SDS011;9149;47.002;8.604;2024-02-28T07:47:31;35.93;;;16.20;;
18048;SDS011;9149;47.002;8.604;2024-02-28T07:49:59;36.57;;;15.50;;
18048;SDS011;9149;47.002;8.604;2024-02-28T07:52:28;31.73;;;14.97;;
18048;SDS011;9149;47.002;8.604;2024-02-28T07:54:56;36.40;;;16.57;;
18048;SDS011;9149;47.002;8.604;2024-02-28T07:57:24;36.97;;;14.77;;
18048;SDS011;9149;47.002;8.604;2024-02-28T07:59:51;37.77;;;15.63;;
18048;SDS011;9149;47.002;8.604;2024-02-28T08:02:19;37.57;;;16.50;;
18048;SDS011;9149;47.002;8.604;2024-02-28T08:04:48;36.63;;;15.50;;
18048;SDS011;9149;47.002;8.604;2024-02-28T08:07:17;37.47;;;15.87;;
18048;SDS011;9149;47.002;8.604;2024-02-28T08:09:45;36.60;;;15.70;;
18048;SDS011;9149;47.002;8.604;2024-02-28T08:12:13;35.73;;;15.30;;
18048;SDS011;9149;47.002;8.604;2024-02-28T08:14:41;34.63;;;16.27;;
18048;SDS011;9149;47.002;8.604;2024-02-28T08:17:09;39.30;;;15.80;;
18048;SDS011;9149;47.002;8.604;2024-02-28T08:19:36;39.07;;;16.27;;
18048;SDS011;9149;47.002;8.604;2024-02-28T08:22:04;35.97;;;15.53;;
18048;SDS011;9149;47.002;8.604;2024-02-28T08:24:32;38.90;;;16.63;;
18048;SDS011;9149;47.002;8.604;2024-02-28T08:27:01;41.87;;;15.50;;
18048;SDS011;9149;47.002;8.604;2024-02-28T08:29:28;33.70;;;14.80;;
18048;SDS011;9149;47.002;8.604;2024-02-28T08:31:56;36.03;;;16.47;;
18048;SDS011;9149;47.002;8.604;2024-02-28T08:34:23;35.00;;;15.20;;
18048;SDS011;9149;47.002;8.604;2024-02-28T08:36:51;34.90;;;15.07;;
18048;SDS011;9149;47.002;8.604;2024-02-28T08:39:19;35.07;;;16.13;;
18048;SDS011;9149;47.002;8.604;2024-02-28T08:41:47;40.07;;;15.73;;
18048;SDS011;9149;47.002;8.604;2024-02-28T08:44:16;33.47;;;15.87;;
18048;SDS011;9149;47.002;8.604;2024-02-28T08:46:44;34.47;;;14.90;;
18048;SDS011;9149;47.002;8.604;2024-02-28T08:49:13;37.50;;;16.43;;
18048;SDS011;9149;47.002;8.604;2024-02-28T08:51:41;36.57;;;15.63;;
18048;SDS011;9149;47.002;8.604;2024-02-28T08:54:10;31.53;;;15.00;;
18048;SDS011;9149;47.002;8.604;2024-02-28T08:56:37;38.40;;;16.17;;
18048;SDS011;9149;47.002;8.604;2024-02-28T08:59:16;32.87;;;15.47;;
18048;SDS011;9149;47.002;8.604;2024-02-28T09:01:44;37.77;;;15.87;;
18048;SDS011;9149;47.002;8.604;2024-02-28T09:04:12;36.63;;;15.27;;
18048;SDS011;9149;47.002;8.604;2024-02-28T09:06:40;35.87;;;15.90;;
18048;SDS011;9149;47.002;8.604;2024-02-28T09:09:08;34.73;;;15.63;;
18048;SDS011;9149;47.002;8.604;2024-02-28T09:11:36;36.17;;;15.80;;
18048;SDS011;9149;47.002;8.604;2024-02-28T09:14:04;37.77;;;15.93;;
18048;SDS011;9149;47.002;8.604;2024-02-28T09:16:33;37.17;;;15.63;;
18048;SDS011;9149;47.002;8.604;2024-02-28T09:19:00;39.60;;;17.03;;
18048;SDS011;9149;47.002;8.604;2024-02-28T09:21:28;38.13;;;16.27;;
18048;SDS011;9149;47.002;8.604;2024-02-28T09:23:56;36.27;;;17.07;;
18048;SDS011;9149;47.002;8.604;2024-02-28T09:26:24;40.65;;;15.98;;
18048;SDS011;9149;47.002;8.604;2024-02-28T09:28:52;39.00;;;16.47;;
18048;SDS011;9149;47.002;8.604;2024-02-28T09:31:19;39.83;;;15.93;;
18048;SDS011;9149;47.002;8.604;2024-02-28T09:33:49;35.08;;;15.43;;
18048;SDS011;9149;47.002;8.604;2024-02-28T09:36:16;41.37;;;16.13;;
18048;SDS011;9149;47.002;8.604;2024-02-28T09:38:44;31.77;;;14.80;;
18048;SDS011;9149;47.002;8.604;2024-02-28T09:41:14;37.83;;;15.90;;
18048;SDS011;9149;47.002;8.604;2024-02-28T09:43:42;36.93;;;15.27;;
18048;SDS011;9149;47.002;8.604;2024-02-28T09:46:09;37.20;;;16.37;;
18048;SDS011;9149;47.002;8.604;2024-02-28T09:48:39;38.75;;;15.68;;
18048;SDS011;9149;47.002;8.604;2024-02-28T09:51:09;41.00;;;15.40;;
18048;SDS011;9149;47.002;8.604;2024-02-28T09:53:37;36.08;;;15.88;;
18048;SDS011;9149;47.002;8.604;2024-02-28T09:56:05;40.35;;;15.80;;
18048;SDS011;9149;47.002;8.604;2024-02-28T09:58:34;37.17;;;16.23;;
18048;SDS011;9149;47.002;8.604;2024-02-28T10:01:04;36.93;;;15.60;;
18048;SDS011;9149;47.002;8.604;2024-02-28T10:03:33;36.77;;;15.97;;
18048;SDS011;9149;47.002;8.604;2024-02-28T10:06:00;34.03;;;16.07;;
18048;SDS011;9149;47.002;8.604;2024-02-28T10:08:32;42.23;;;16.83;;
18048;SDS011;9149;47.002;8.604;2024-02-28T10:11:01;48.47;;;17.10;;
18048;SDS011;9149;47.002;8.604;2024-02-28T10:13:29;39.67;;;15.47;;
18048;SDS011;9149;47.002;8.604;2024-02-28T10:15:57;34.37;;;15.47;;
18048;SDS011;9149;47.002;8.604;2024-02-28T10:18:25;30.93;;;14.83;;
18048;SDS011;9149;47.002;8.604;2024-02-28T10:20:53;33.70;;;13.93;;
18048;SDS011;9149;47.002;8.604;2024-02-28T10:23:21;32.60;;;13.93;;
18048;SDS011;9149;47.002;8.604;2024-02-28T10:25:49;32.43;;;14.00;;
18048;SDS011;9149;47.002;8.604;2024-02-28T10:28:23;36.03;;;13.73;;
18048;SDS011;9149;47.002;8.604;2024-02-28T10:30:51;35.33;;;14.43;;
18048;SDS011;9149;47.002;8.604;2024-02-28T10:33:19;30.33;;;13.50;;
18048;SDS011;9149;47.002;8.604;2024-02-28T10:35:47;30.37;;;12.73;;
18048;SDS011;9149;47.002;8.604;2024-02-28T10:38:18;29.30;;;12.67;;
18048;SDS011;9149;47.002;8.604;2024-02-28T10:40:45;29.00;;;12.70;;
18048;SDS011;9149;47.002;8.604;2024-02-28T10:43:15;31.87;;;12.30;;
18048;SDS011;9149;47.002;8.604;2024-02-28T10:45:43;32.27;;;12.33;;
18048;SDS011;9149;47.002;8.604;2024-02-28T10:48:32;25.67;;;11.67;;
18048;SDS011;9149;47.002;8.604;2024-02-28T10:51:00;31.27;;;13.00;;
18048;SDS011;9149;47.002;8.604;2024-02-28T10:53:32;33.27;;;12.97;;
18048;SDS011;9149;47.002;8.604;2024-02-28T10:56:02;28.90;;;12.23;;
18048;SDS011;9149;47.002;8.604;2024-02-28T10:58:35;30.13;;;12.00;;
18048;SDS011;9149;47.002;8.604;2024-02-28T11:01:03;25.98;;;12.48;;
18048;SDS011;9149;47.002;8.604;2024-02-28T11:03:31;28.58;;;12.45;;
18048;SDS011;9149;47.002;8.604;2024-02-28T11:05:59;24.50;;;12.03;;
18048;SDS011;9149;47.002;8.604;2024-02-28T11:08:29;27.53;;;11.63;;
18048;SDS011;9149;47.002;8.604;2024-02-28T11:10:58;34.37;;;12.87;;
18048;SDS011;9149;47.002;8.604;2024-02-28T11:13:27;34.40;;;12.30;;
18048;SDS011;9149;47.002;8.604;2024-02-28T11:16:06;27.57;;;11.70;;
18048;SDS011;9149;47.002;8.604;2024-02-28T11:18:34;29.80;;;11.50;;
18048;SDS011;9149;47.002;8.604;2024-02-28T11:21:02;30.63;;;12.37;;
18048;SDS011;9149;47.002;8.604;2024-02-28T11:23:35;22.23;;;10.73;;
18048;SDS011;9149;47.002;8.604;2024-02-28T11:26:03;23.77;;;11.03;;
18048;SDS011;9149;47.002;8.604;2024-02-28T11:28:31;28.85;;;11.73;;
18048;SDS011;9149;47.002;8.604;2024-02-28T11:31:00;27.48;;;11.55;;
18048;SDS011;9149;47.002;8.604;2024-02-28T11:33:27;26.48;;;11.25;;
18048;SDS011;9149;47.002;8.604;2024-02-28T11:35:55;27.87;;;11.13;;
18048;SDS011;9149;47.002;8.604;2024-02-28T11:38:24;29.83;;;11.05;;
18048;SDS011;9149;47.002;8.604;2024-02-28T11:40:52;30.42;;;11.82;;
18048;SDS011;9149;47.002;8.604;2024-02-28T11:43:20;25.20;;;11.40;;
18048;SDS011;9149;47.002;8.604;2024-02-28T11:45:48;30.10;;;11.57;;
18048;SDS011;9149;47.002;8.604;2024-02-28T11:48:18;29.43;;;10.87;;
18048;SDS011;9149;47.002;8.604;2024-02-28T11:50:46;27.07;;;10.90;;
18048;SDS011;9149;47.002;8.604;2024-02-28T11:53:13;25.45;;;11.13;;
18048;SDS011;9149;47.002;8.604;2024-02-28T11:55:41;25.60;;;11.57;;
18048;SDS011;9149;47.002;8.604;2024-02-28T11:58:09;27.75;;;11.93;;
18048;SDS011;9149;47.002;8.604;2024-02-28T12:00:45;28.57;;;12.57;;
18048;SDS011;9149;47.002;8.604;2024-02-28T12:03:13;28.85;;;11.40;;
18048;SDS011;9149;47.002;8.604;2024-02-28T12:05:43;32.75;;;11.40;;
18048;SDS011;9149;47.002;8.604;2024-02-28T12:08:10;25.45;;;11.18;;
18048;SDS011;9149;47.002;8.604;2024-02-28T12:10:38;28.30;;;11.82;;
18048;SDS011;9149;47.002;8.604;2024-02-28T12:13:06;28.88;;;11.20;;
18048;SDS011;9149;47.002;8.604;2024-02-28T12:15:35;27.13;;;11.07;;
18048;SDS011;9149;47.002;8.604;2024-02-28T12:18:06;26.35;;;11.45;;
18048;SDS011;9149;47.002;8.604;2024-02-28T12:20:34;26.27;;;11.13;;
18048;SDS011;9149;47.002;8.604;2024-02-28T12:23:05;29.17;;;10.93;;
18048;SDS011;9149;47.002;8.604;2024-02-28T12:25:34;32.35;;;11.77;;
18048;SDS011;9149;47.002;8.604;2024-02-28T12:28:03;27.30;;;10.80;;
18048;SDS011;9149;47.002;8.604;2024-02-28T12:30:38;29.52;;;11.63;;
18048;SDS011;9149;47.002;8.604;2024-02-28T12:33:06;26.80;;;11.97;;
18048;SDS011;9149;47.002;8.604;2024-02-28T12:35:34;29.05;;;11.77;;
18048;SDS011;9149;47.002;8.604;2024-02-28T12:38:02;28.55;;;11.85;;
18048;SDS011;9149;47.002;8.604;2024-02-28T12:40:31;27.63;;;10.93;;
18048;SDS011;9149;47.002;8.604;2024-02-28T12:42:58;25.88;;;11.63;;
18048;SDS011;9149;47.002;8.604;2024-02-28T12:45:26;27.67;;;11.80;;
18048;SDS011;9149;47.002;8.604;2024-02-28T12:47:54;34.37;;;11.90;;
18048;SDS011;9149;47.002;8.604;2024-02-28T12:50:23;29.95;;;11.50;;
18048;SDS011;9149;47.002;8.604;2024-02-28T12:52:51;29.33;;;12.03;;
18048;SDS011;9149;47.002;8.604;2024-02-28T12:55:20;25.10;;;11.40;;
18048;SDS011;9149;47.002;8.604;2024-02-28T12:57:49;34.63;;;11.70;;
18048;SDS011;9149;47.002;8.604;2024-02-28T13:00:17;26.77;;;11.07;;
18048;SDS011;9149;47.002;8.604;2024-02-28T13:02:45;26.87;;;11.53;;
18048;SDS011;9149;47.002;8.604;2024-02-28T13:05:13;23.80;;;10.57;;
18048;SDS011;9149;47.002;8.604;2024-02-28T13:07:41;34.60;;;12.90;;
18048;SDS011;9149;47.002;8.604;2024-02-28T13:10:08;23.73;;;10.00;;
18048;SDS011;9149;47.002;8.604;2024-02-28T13:12:37;23.17;;;10.20;;
18048;SDS011;9149;47.002;8.604;2024-02-28T13:15:06;28.73;;;11.70;;
18048;SDS011;9149;47.002;8.604;2024-02-28T13:17:34;27.60;;;11.60;;
18048;SDS011;9149;47.002;8.604;2024-02-28T13:20:03;33.17;;;11.90;;
18048;SDS011;9149;47.002;8.604;2024-02-28T13:22:30;28.90;;;11.60;;
18048;SDS011;9149;47.002;8.604;2024-02-28T13:24:58;28.48;;;11.70;;
18048;SDS011;9149;47.002;8.604;2024-02-28T13:27:27;35.58;;;13.32;;
18048;SDS011;9149;47.002;8.604;2024-02-28T13:29:54;33.90;;;11.93;;
18048;SDS011;9149;47.002;8.604;2024-02-28T13:32:23;26.83;;;11.90;;
18048;SDS011;9149;47.002;8.604;2024-02-28T13:34:51;29.27;;;10.83;;
18048;SDS011;9149;47.002;8.604;2024-02-28T13:37:19;30.70;;;11.73;;
18048;SDS011;9149;47.002;8.604;2024-02-28T13:39:46;25.33;;;12.57;;
18048;SDS011;9149;47.002;8.604;2024-02-28T13:42:17;24.57;;;11.17;;
18048;SDS011;9149;47.002;8.604;2024-02-28T13:44:46;26.87;;;11.83;;
18048;SDS011;9149;47.002;8.604;2024-02-28T13:47:14;29.17;;;11.73;;
18048;SDS011;9149;47.002;8.604;2024-02-28T13:49:43;28.58;;;10.82;;
18048;SDS011;9149;47.002;8.604;2024-02-28T13:52:11;30.97;;;11.93;;
18048;SDS011;9149;47.002;8.604;2024-02-28T13:54:39;26.90;;;11.87;;
18048;SDS011;9149;47.002;8.604;2024-02-28T13:57:06;34.60;;;13.27;;
18048;SDS011;9149;47.002;8.604;2024-02-28T13:59:37;28.30;;;11.55;;
18048;SDS011;9149;47.002;8.604;2024-02-28T14:02:05;28.73;;;11.53;;
18048;SDS011;9149;47.002;8.604;2024-02-28T14:04:35;28.30;;;12.33;;
18048;SDS011;9149;47.002;8.604;2024-02-28T14:07:06;28.67;;;11.68;;
18048;SDS011;9149;47.002;8.604;2024-02-28T14:09:33;28.80;;;11.67;;
18048;SDS011;9149;47.002;8.604;2024-02-28T14:12:01;27.27;;;11.47;;
18048;SDS011;9149;47.002;8.604;2024-02-28T14:14:29;27.43;;;10.17;;
18048;SDS011;9149;47.002;8.604;2024-02-28T14:16:56;27.57;;;11.73;;
18048;SDS011;9149;47.002;8.604;2024-02-28T14:19:24;32.57;;;11.23;;
18048;SDS011;9149;47.002;8.604;2024-02-28T14:21:52;24.90;;;11.13;;
18048;SDS011;9149;47.002;8.604;2024-02-28T14:24:21;23.87;;;10.57;;
18048;SDS011;9149;47.002;8.604;2024-02-28T14:26:48;34.97;;;12.00;;
18048;SDS011;9149;47.002;8.604;2024-02-28T14:29:16;25.93;;;10.70;;
18048;SDS011;9149;47.002;8.604;2024-02-28T14:31:43;27.30;;;11.77;;
18048;SDS011;9149;47.002;8.604;2024-02-28T14:34:11;27.83;;;11.77;;
18048;SDS011;9149;47.002;8.604;2024-02-28T14:36:39;33.37;;;12.33;;
18048;SDS011;9149;47.002;8.604;2024-02-28T14:39:07;27.37;;;11.70;;